Time;durP1;ratioP1;P1;durP2;ratioP2;P2;SDS_P1;SDS_P2;PMS_P1;PMS_P2;Temp;Humidity;BMP_temperature;BMP_pressure;BME280_temperature;BME280_humidity;BME280_pressure;Samples;Min_cycle;Max_cycle;Signal;HPM_P1;HPM_P2
2021/11/08 00:00:00;;;;;;;11.63;2.85;;;;;;;;;;6174829;23;20032;-63
2021/11/08 00:02:29;;;;;;;12.50;3.08;;;;;;;;;;6174971;23;20080;-62
2021/11/08 00:04:55;;;;;;;12.60;2.85;;;;;;;;;;6148279;23;20005;-63
2021/11/08 00:07:20;;;;;;;17.98;3.42;;;;;;;;;;6175341;23;20127;-62
2021/11/08 00:09:46;;;;;;;11.10;3.20;;;;;;;;;;6172908;23;20013;-62
2021/11/08 00:12:13;;;;;;;15.23;2.75;;;;;;;;;;6175642;23;20749;-63
2021/11/08 00:14:41;;;;;;;11.73;2.38;;;;;;;;;;6176435;23;20012;-62
2021/11/08 00:17:17;;;;;;;;;;;;;;;;;;6176799;23;20019;-62
2021/11/08 00:20:08;;;;;;;15.98;3.03;;;;;;;;;;6174661;23;20337;-62
2021/11/08 00:22:35;;;;;;;;;;;;;;;;;;6156170;23;20777;-63
2021/11/08 00:25:02;;;;;;;9.30;2.17;;;;;;;;;;6176299;23;19908;-63
2021/11/08 00:27:27;;;;;;;12.88;2.80;;;;;;;;;;6175343;23;20005;-63
2021/11/08 00:29:53;;;;;;;11.48;3.22;;;;;;;;;;6177055;23;20132;-62
2021/11/08 00:32:18;;;;;;;14.35;3.40;;;;;;;;;;6175978;23;20045;-62
2021/11/08 00:34:44;;;;;;;18.48;3.50;;;;;;;;;;6150286;23;20013;-63
2021/11/08 00:37:11;;;;;;;16.80;2.92;;;;;;;;;;6176721;23;20015;-63
2021/11/08 00:39:38;;;;;;;15.65;2.95;;;;;;;;;;6176061;23;20013;-63
2021/11/08 00:42:04;;;;;;;8.95;2.83;;;;;;;;;;6149627;23;20548;-63
2021/11/08 00:44:29;;;;;;;15.70;3.22;;;;;;;;;;6175600;23;20001;-63
2021/11/08 00:46:56;;;;;;;14.40;2.85;;;;;;;;;;6176595;23;20008;-63
2021/11/08 00:49:23;;;;;;;11.20;3.00;;;;;;;;;;6176613;23;20323;-62
2021/11/08 00:51:49;;;;;;;15.30;3.55;;;;;;;;;;6176032;23;20020;-62
2021/11/08 00:54:16;;;;;;;12.68;2.75;;;;;;;;;;6175707;23;20004;-62
2021/11/08 00:56:47;;;;;;;14.80;2.75;;;;;;;;;;6176755;23;20108;-62
2021/11/08 00:59:14;;;;;;;15.23;3.60;;;;;;;;;;6177266;23;20008;-62
2021/11/08 01:01:42;;;;;;;;;;;;;;;;;;6176266;23;20508;-62
2021/11/08 01:04:09;;;;;;;12.40;2.83;;;;;;;;;;6176591;23;19912;-62
2021/11/08 01:06:34;;;;;;;19.60;3.42;;;;;;;;;;6176617;23;20009;-62
2021/11/08 01:09:00;;;;;;;13.95;2.65;;;;;;;;;;6176993;23;20054;-62
2021/11/08 01:11:26;;;;;;;14.82;2.78;;;;;;;;;;6174675;23;20043;-62
2021/11/08 01:13:51;;;;;;;11.27;2.80;;;;;;;;;;6176442;23;20008;-63
2021/11/08 01:16:16;;;;;;;10.77;2.58;;;;;;;;;;6175371;23;20557;-63
2021/11/08 01:18:44;;;;;;;13.25;2.75;;;;;;;;;;6174828;23;20009;-63
2021/11/08 01:21:10;;;;;;;11.38;2.63;;;;;;;;;;6177137;23;20009;-64
2021/11/08 01:23:35;;;;;;;15.82;2.97;;;;;;;;;;6176864;23;20075;-64
2021/11/08 01:26:05;;;;;;;13.60;3.03;;;;;;;;;;6174759;23;20009;-64
2021/11/08 01:28:36;;;;;;;11.85;2.70;;;;;;;;;;6176874;23;20298;-64
2021/11/08 01:31:04;;;;;;;13.38;3.03;;;;;;;;;;6174900;23;20080;-64
2021/11/08 01:33:30;;;;;;;12.65;3.03;;;;;;;;;;6151085;23;20078;-64
2021/11/08 01:36:08;;;;;;;9.82;2.47;;;;;;;;;;6176043;23;20178;-64
2021/11/08 01:38:48;;;;;;;15.48;3.30;;;;;;;;;;6176166;23;20430;-64
2021/11/08 01:41:18;;;;;;;14.40;3.08;;;;;;;;;;6175252;23;20016;-64
2021/11/08 01:43:44;;;;;;;13.55;2.78;;;;;;;;;;6176812;23;20047;-64
2021/11/08 01:46:11;;;;;;;12.37;2.77;;;;;;;;;;6176182;23;20009;-64
2021/11/08 01:48:37;;;;;;;12.97;2.70;;;;;;;;;;6174957;23;20021;-64
2021/11/08 01:51:02;;;;;;;11.57;2.50;;;;;;;;;;6175317;23;20710;-64
2021/11/08 01:53:28;;;;;;;10.95;2.80;;;;;;;;;;6177600;23;20001;-64
2021/11/08 01:55:54;;;;;;;13.68;2.80;;;;;;;;;;6176626;23;20005;-64
2021/11/08 01:58:21;;;;;;;13.10;2.88;;;;;;;;;;6176460;23;20028;-64
2021/11/08 02:00:48;;;;;;;14.35;2.90;;;;;;;;;;6177878;23;20083;-64
2021/11/08 02:03:17;;;;;;;12.25;3.13;;;;;;;;;;6176416;23;20574;-64
2021/11/08 02:05:43;;;;;;;13.27;2.85;;;;;;;;;;6177801;23;20005;-64
2021/11/08 02:08:09;;;;;;;12.13;2.63;;;;;;;;;;6177641;23;20028;-64
2021/11/08 02:10:35;;;;;;;13.23;2.90;;;;;;;;;;6151104;23;20005;-64
2021/11/08 02:13:02;;;;;;;13.60;3.10;;;;;;;;;;6179014;23;20441;-64
2021/11/08 02:15:28;;;;;;;14.57;3.03;;;;;;;;;;6176796;23;20001;-63
2021/11/08 02:17:54;;;;;;;11.85;2.80;;;;;;;;;;6176495;23;20063;-64
2021/11/08 02:20:24;;;;;;;14.38;2.90;;;;;;;;;;6181117;23;20009;-63
2021/11/08 02:22:50;;;;;;;13.85;3.10;;;;;;;;;;6182536;23;20319;-64
2021/11/08 02:25:17;;;;;;;12.90;2.67;;;;;;;;;;6155675;23;20005;-64
2021/11/08 02:27:43;;;;;;;12.63;3.30;;;;;;;;;;6181589;23;20024;-62
2021/11/08 02:30:10;;;;;;;17.40;3.50;;;;;;;;;;6182274;23;20354;-63
2021/11/08 02:32:37;;;;;;;15.73;3.13;;;;;;;;;;6172283;23;20812;-62
2021/11/08 02:35:05;;;;;;;13.70;3.22;;;;;;;;;;6126584;23;20020;-62
2021/11/08 02:37:43;;;;;;;11.63;3.15;;;;;;;;;;6153477;23;20013;-62
2021/11/08 02:40:18;;;;;;;13.05;3.40;;;;;;;;;;6148861;23;20008;-62
2021/11/08 02:42:49;;;;;;;14.32;3.30;;;;;;;;;;6147825;23;20103;-62
2021/11/08 02:45:19;;;;;;;13.27;3.20;;;;;;;;;;6147456;23;20009;-62
2021/11/08 02:47:46;;;;;;;9.85;2.85;;;;;;;;;;6150838;23;20520;-63
2021/11/08 02:50:12;;;;;;;13.60;3.40;;;;;;;;;;6152641;23;20005;-62
2021/11/08 02:52:38;;;;;;;15.10;3.40;;;;;;;;;;6153666;23;20006;-62
2021/11/08 02:55:05;;;;;;;18.95;5.97;;;;;;;;;;6125697;23;20384;-63
2021/11/08 02:57:30;;;;;;;13.43;3.65;;;;;;;;;;6126931;23;20009;-63
2021/11/08 03:00:01;;;;;;;16.20;3.63;;;;;;;;;;6153043;23;20006;-63
2021/11/08 03:02:31;;;;;;;13.93;3.50;;;;;;;;;;6126281;23;20077;-63
2021/11/08 03:04:57;;;;;;;13.57;3.40;;;;;;;;;;6150563;23;20010;-63
2021/11/08 03:07:26;;;;;;;13.48;3.67;;;;;;;;;;6152748;23;20490;-63
2021/11/08 03:09:58;;;;;;;12.25;3.50;;;;;;;;;;6151725;23;20006;-63
2021/11/08 03:12:29;;;;;;;14.85;3.47;;;;;;;;;;6151554;23;20081;-63
2021/11/08 03:15:09;;;;;;;14.98;5.63;;;;;;;;;;6125279;23;20005;-62
2021/11/08 03:17:46;;;;;;;13.05;3.70;;;;;;;;;;6150981;23;20327;-63
2021/11/08 03:20:16;;;;;;;13.23;3.70;;;;;;;;;;6151005;23;20454;-63
2021/11/08 03:22:49;;;;;;;12.93;4.40;;;;;;;;;;6150929;23;20001;-63
2021/11/08 03:25:23;;;;;;;16.20;5.03;;;;;;;;;;6149797;23;20101;-63
2021/11/08 03:27:51;;;;;;;16.83;4.28;;;;;;;;;;6153466;23;20012;-63
2021/11/08 03:30:25;;;;;;;15.70;6.05;;;;;;;;;;6152899;23;20005;-63
2021/11/08 03:32:52;;;;;;;17.33;7.25;;;;;;;;;;6164214;23;20009;-63
2021/11/08 03:35:23;;;;;;;13.05;5.13;;;;;;;;;;6183552;23;20016;-63
2021/11/08 03:38:07;;;;;;;16.67;6.18;;;;;;;;;;6182342;23;20292;-63
2021/11/08 03:40:36;;;;;;;11.82;3.42;;;;;;;;;;6182575;23;20005;-63
2021/11/08 03:43:05;;;;;;;21.30;6.57;;;;;;;;;;6156925;23;20001;-63
2021/11/08 03:45:31;;;;;;;15.70;4.70;;;;;;;;;;6183533;23;20342;-63
2021/11/08 03:47:58;;;;;;;15.43;6.90;;;;;;;;;;6181990;23;20080;-63
2021/11/08 03:50:26;;;;;;;16.27;5.32;;;;;;;;;;6181675;23;20338;-62
2021/11/08 03:52:52;;;;;;;18.45;4.40;;;;;;;;;;6181867;23;19997;-63
2021/11/08 03:55:19;;;;;;;17.73;8.15;;;;;;;;;;6180957;23;20079;-63
2021/11/08 03:57:48;;;;;;;;;;;;;;;;;;6183327;23;20126;-63
2021/11/08 04:00:15;;;;;;;20.52;8.00;;;;;;;;;;6182000;23;20199;-63
2021/11/08 04:02:44;;;;;;;15.05;5.88;;;;;;;;;;6181871;23;20001;-63
2021/11/08 04:05:13;;;;;;;12.77;5.25;;;;;;;;;;6182642;23;20403;-63
2021/11/08 04:07:39;;;;;;;15.82;5.03;;;;;;;;;;6180431;23;20080;-63
2021/11/08 04:10:07;;;;;;;13.15;4.95;;;;;;;;;;6181190;23;20099;-63
2021/11/08 04:12:37;;;;;;;16.23;4.70;;;;;;;;;;6182447;23;20001;-63
2021/11/08 04:15:06;;;;;;;14.85;4.80;;;;;;;;;;6151896;23;20012;-63
2021/11/08 04:17:33;;;;;;;15.48;5.13;;;;;;;;;;6179049;23;20005;-63
2021/11/08 04:19:58;;;;;;;14.85;5.32;;;;;;;;;;6177484;23;20466;-63
2021/11/08 04:22:39;;;;;;;12.98;5.18;;;;;;;;;;6180977;23;20008;-62
2021/11/08 04:25:05;;;;;;;17.67;5.10;;;;;;;;;;6180358;23;20560;-63
2021/11/08 04:27:35;;;;;;;17.13;4.70;;;;;;;;;;6181955;23;20028;-64
2021/11/08 04:30:01;;;;;;;15.23;4.50;;;;;;;;;;6179671;23;20005;-63
2021/11/08 04:32:31;;;;;;;13.57;4.20;;;;;;;;;;6179009;23;20025;-64
2021/11/08 04:35:06;;;;;;;14.55;4.38;;;;;;;;;;6178933;23;20502;-63
2021/11/08 04:40:26;;;;;;;17.88;4.40;;;;;;;;;;6189505;23;20036;-63
2021/11/08 04:43:07;;;;;;;12.80;3.70;;;;;;;;;;6181316;23;20005;-63
2021/11/08 04:46:03;;;;;;;12.15;3.85;;;;;;;;;;6180842;23;20024;-64
2021/11/08 04:51:23;;;;;;;12.48;3.45;;;;;;;;;;6180400;23;20084;-63
2021/11/08 04:54:06;;;;;;;16.88;3.40;;;;;;;;;;6179089;23;20397;-63
2021/11/08 05:21:24;;;;;;;14.30;4.03;;;;;;;;;;6181227;23;20071;-63
2021/11/08 05:31:43;;;;;;;15.50;4.50;;;;;;;;;;6191856;23;20009;-63
2021/11/08 05:34:10;;;;;;;15.05;4.47;;;;;;;;;;6179548;23;20009;-63
2021/11/08 05:36:35;;;;;;;13.63;4.50;;;;;;;;;;6154263;23;20008;-63
2021/11/08 05:39:03;;;;;;;17.90;6.97;;;;;;;;;;6180385;23;20001;-63
2021/11/08 05:41:29;;;;;;;;;;;;;;;;;;6182457;23;20005;-63
2021/11/08 05:43:56;;;;;;;16.90;5.65;;;;;;;;;;6181075;23;20333;-63
2021/11/08 05:46:21;;;;;;;15.65;6.97;;;;;;;;;;6184043;23;20083;-63
2021/11/08 05:48:47;;;;;;;17.00;5.32;;;;;;;;;;6183986;23;20001;-63
2021/11/08 05:51:13;;;;;;;26.25;8.80;;;;;;;;;;6183010;23;20008;-63
2021/11/08 05:53:42;;;;;;;16.08;5.53;;;;;;;;;;6181525;23;20001;-63
2021/11/08 06:50:36;;;;;;;13.02;4.05;;;;;;;;;;6178258;23;20083;-64
2021/11/08 06:53:05;;;;;;;12.48;4.65;;;;;;;;;;6176372;23;20394;-63
2021/11/08 06:55:32;;;;;;;17.77;4.97;;;;;;;;;;6151220;23;20084;-64
2021/11/08 06:58:03;;;;;;;15.60;4.63;;;;;;;;;;6180278;23;20005;-63
2021/11/08 07:00:31;;;;;;;11.45;4.28;;;;;;;;;;6182310;23;20000;-63
2021/11/08 07:02:58;;;;;;;14.98;4.78;;;;;;;;;;6157358;23;20008;-63
2021/11/08 07:05:24;;;;;;;15.10;4.63;;;;;;;;;;6182334;23;20360;-64
2021/11/08 07:07:50;;;;;;;17.92;5.78;;;;;;;;;;6181617;23;20005;-64
2021/11/08 07:10:20;;;;;;;15.23;4.38;;;;;;;;;;6179934;23;20009;-64
2021/11/08 07:12:47;;;;;;;17.27;4.38;;;;;;;;;;6181993;23;20009;-64
2021/11/08 07:15:13;;;;;;;19.10;5.00;;;;;;;;;;6181641;23;20492;-64
2021/11/08 07:17:38;;;;;;;18.63;5.28;;;;;;;;;;6182834;23;20264;-64
2021/11/08 07:20:05;;;;;;;16.42;5.47;;;;;;;;;;6182337;23;20383;-64
2021/11/08 07:22:40;;;;;;;21.08;4.85;;;;;;;;;;6180282;23;20372;-64
2021/11/08 07:25:07;;;;;;;13.95;4.25;;;;;;;;;;6179683;23;20008;-64
2021/11/08 07:27:38;;;;;;;15.90;4.30;;;;;;;;;;6176070;23;20490;-64
2021/11/08 07:30:06;;;;;;;18.15;5.10;;;;;;;;;;6177869;23;20001;-64
2021/11/08 07:32:31;;;;;;;16.85;4.57;;;;;;;;;;6176789;23;20044;-64
2021/11/08 07:34:57;;;;;;;16.70;4.90;;;;;;;;;;6173436;23;20316;-65
2021/11/08 07:37:24;;;;;;;18.15;4.82;;;;;;;;;;6183771;23;20001;-65
2021/11/08 07:39:50;;;;;;;20.25;4.78;;;;;;;;;;6181470;23;20087;-65
2021/11/08 07:42:16;;;;;;;13.02;4.22;;;;;;;;;;6157422;23;20311;-65
2021/11/08 07:44:43;;;;;;;18.40;4.60;;;;;;;;;;6178214;23;20005;-65
2021/11/08 07:47:08;;;;;;;14.93;5.07;;;;;;;;;;6182218;23;20035;-65
2021/11/08 07:49:34;;;;;;;17.08;4.85;;;;;;;;;;6181323;23;20091;-65
2021/11/08 07:52:01;;;;;;;15.15;5.28;;;;;;;;;;6157137;23;20005;-65
2021/11/08 07:54:30;;;;;;;14.50;4.88;;;;;;;;;;6179823;23;20009;-65
2021/11/08 07:57:00;;;;;;;18.48;5.65;;;;;;;;;;6179295;23;20490;-65
2021/11/08 07:59:26;;;;;;;20.02;5.28;;;;;;;;;;6176753;23;20561;-65
2021/11/08 08:01:52;;;;;;;22.98;5.70;;;;;;;;;;6179389;23;20008;-65
2021/11/08 08:04:18;;;;;;;19.98;5.25;;;;;;;;;;6179058;23;20418;-65
2021/11/08 08:06:45;;;;;;;18.02;4.50;;;;;;;;;;6177488;23;20308;-65
2021/11/08 08:09:12;;;;;;;11.55;4.35;;;;;;;;;;6176191;23;19997;-65
2021/11/08 08:11:38;;;;;;;17.00;4.50;;;;;;;;;;6179288;23;20005;-65
2021/11/08 08:14:04;;;;;;;11.27;4.05;;;;;;;;;;6180847;23;20060;-65
2021/11/08 08:16:29;;;;;;;18.45;4.28;;;;;;;;;;6181153;23;20080;-65
2021/11/08 08:18:55;;;;;;;19.90;4.78;;;;;;;;;;6181788;23;20491;-66
2021/11/08 08:21:21;;;;;;;19.30;5.05;;;;;;;;;;6178879;23;20103;-65
2021/11/08 08:23:53;;;;;;;17.38;4.10;;;;;;;;;;6178197;23;20032;-66
2021/11/08 08:26:26;;;;;;;10.18;3.53;;;;;;;;;;6179555;23;20030;-66
2021/11/08 08:28:53;;;;;;;14.85;4.03;;;;;;;;;;6179621;23;20087;-66
2021/11/08 08:31:18;;;;;;;11.00;3.65;;;;;;;;;;6180414;23;20001;-65
2021/11/08 08:33:45;;;;;;;14.68;4.72;;;;;;;;;;6179117;23;20024;-66
2021/11/08 08:36:12;;;;;;;15.93;7.43;;;;;;;;;;6177777;23;20343;-66
2021/11/08 08:38:38;;;;;;;10.63;4.85;;;;;;;;;;6179247;23;20020;-66
2021/11/08 08:41:05;;;;;;;11.02;4.00;;;;;;;;;;6180659;23;20059;-66
2021/11/08 08:43:30;;;;;;;12.53;4.17;;;;;;;;;;6182332;23;20581;-65
2021/11/08 08:45:59;;;;;;;15.00;4.40;;;;;;;;;;6182611;23;20008;-66
2021/11/08 08:48:26;;;;;;;17.73;4.50;;;;;;;;;;6178981;23;20016;-66
2021/11/08 08:50:53;;;;;;;11.63;4.30;;;;;;;;;;6181678;23;20047;-65
2021/11/08 08:53:19;;;;;;;13.43;4.22;;;;;;;;;;6181832;23;20747;-66
2021/11/08 08:55:45;;;;;;;15.07;4.45;;;;;;;;;;6181208;23;20001;-65
2021/11/08 08:58:12;;;;;;;12.50;4.32;;;;;;;;;;6183699;23;20031;-66
2021/11/08 09:00:43;;;;;;;12.48;4.60;;;;;;;;;;6178134;23;20018;-65
2021/11/08 09:03:09;;;;;;;16.35;4.60;;;;;;;;;;6176348;23;20009;-65
2021/11/08 09:05:35;;;;;;;17.35;6.60;;;;;;;;;;6181379;23;20005;-66
2021/11/08 09:08:01;;;;;;;13.38;5.18;;;;;;;;;;6179146;23;20044;-66
2021/11/08 09:10:30;;;;;;;18.20;7.97;;;;;;;;;;6179054;23;20008;-65
2021/11/08 09:13:03;;;;;;;12.35;4.50;;;;;;;;;;6182981;23;20316;-65
2021/11/08 09:15:29;;;;;;;14.05;4.82;;;;;;;;;;6181049;23;20005;-66
2021/11/08 09:17:56;;;;;;;11.82;4.13;;;;;;;;;;6182428;23;20419;-66
2021/11/08 09:20:22;;;;;;;18.70;4.40;;;;;;;;;;6182377;23;20028;-66
2021/11/08 09:22:50;;;;;;;15.38;4.55;;;;;;;;;;6182702;23;20005;-66
2021/11/08 09:25:18;;;;;;;14.18;4.65;;;;;;;;;;6154971;23;20043;-65
2021/11/08 09:27:46;;;;;;;10.77;3.85;;;;;;;;;;6181623;23;20445;-65
2021/11/08 09:30:13;;;;;;;11.30;3.83;;;;;;;;;;6182101;23;20052;-65
2021/11/08 09:32:39;;;;;;;9.73;3.53;;;;;;;;;;6180464;23;20016;-66
2021/11/08 09:35:07;;;;;;;11.73;3.90;;;;;;;;;;6178097;23;20126;-65
2021/11/08 09:37:42;;;;;;;18.45;4.95;;;;;;;;;;6179556;23;20027;-65
2021/11/08 09:40:10;;;;;;;15.10;4.05;;;;;;;;;;6177545;23;20008;-66
2021/11/08 09:42:36;;;;;;;;;;;;;;;;;;6181631;23;20063;-66
2021/11/08 09:45:05;;;;;;;9.32;3.28;;;;;;;;;;6180280;23;19926;-65
2021/11/08 09:47:38;;;;;;;14.35;4.00;;;;;;;;;;6182936;23;20084;-65
2021/11/08 09:50:10;;;;;;;11.40;4.50;;;;;;;;;;6154216;23;20083;-65
2021/11/08 09:52:40;;;;;;;14.07;4.47;;;;;;;;;;6180252;23;20059;-65
2021/11/08 09:55:07;;;;;;;13.90;4.13;;;;;;;;;;6177999;23;20005;-65
2021/11/08 09:57:33;;;;;;;13.18;3.80;;;;;;;;;;6179974;23;20012;-66
2021/11/08 09:59:58;;;;;;;12.25;4.60;;;;;;;;;;6173328;23;20414;-66
2021/11/08 10:02:39;;;;;;;14.35;4.00;;;;;;;;;;6179719;23;20001;-66
2021/11/08 10:05:04;;;;;;;13.73;3.60;;;;;;;;;;6178901;23;20016;-65
2021/11/08 10:07:39;;;;;;;11.90;4.05;;;;;;;;;;6181304;23;20009;-65
2021/11/08 10:10:06;;;;;;;17.80;4.97;;;;;;;;;;6180407;23;20088;-66
2021/11/08 10:12:38;;;;;;;13.88;4.35;;;;;;;;;;6181114;23;20077;-65
2021/11/08 10:15:04;;;;;;;14.85;4.15;;;;;;;;;;6181742;23;20265;-65
2021/11/08 10:17:29;;;;;;;13.77;4.07;;;;;;;;;;6183058;23;20423;-65
2021/11/08 10:19:56;;;;;;;17.42;4.50;;;;;;;;;;6180966;23;20001;-65
2021/11/08 10:22:21;;;;;;;16.73;4.10;;;;;;;;;;6182269;23;20333;-65
2021/11/08 10:24:49;;;;;;;12.52;4.18;;;;;;;;;;6179954;23;20012;-65
2021/11/08 10:27:17;;;;;;;;;;;;;;;;;;6182157;23;20005;-65
2021/11/08 10:29:46;;;;;;;11.10;3.90;;;;;;;;;;6175292;23;19916;-65
2021/11/08 10:32:13;;;;;;;12.40;3.55;;;;;;;;;;6178096;23;21484;-66
2021/11/08 10:34:51;;;;;;;12.93;4.30;;;;;;;;;;6143023;23;20431;-65
2021/11/08 10:37:28;;;;;;;11.40;3.95;;;;;;;;;;6182464;23;20036;-65
2021/11/08 10:39:54;;;;;;;13.43;4.13;;;;;;;;;;6167853;23;20001;-65
2021/11/08 10:42:43;;;;;;;12.55;3.70;;;;;;;;;;6148437;23;20063;-65
2021/11/08 10:45:19;;;;;;;13.60;4.00;;;;;;;;;;6170137;23;20036;-65
2021/11/08 10:48:00;;;;;;;14.18;4.60;;;;;;;;;;6150729;23;20096;-65
2021/11/08 10:50:27;;;;;;;12.27;4.05;;;;;;;;;;6175706;23;20124;-65
2021/11/08 10:53:12;;;;;;;18.20;4.35;;;;;;;;;;6177373;23;20005;-65
2021/11/08 10:55:38;;;;;;;15.30;4.32;;;;;;;;;;6176369;23;20021;-65
2021/11/08 10:58:15;;;;;;;11.98;3.97;;;;;;;;;;6177926;23;20454;-65
2021/11/08 11:00:48;;;;;;;14.57;4.10;;;;;;;;;;6145828;23;20032;-66
2021/11/08 11:03:15;;;;;;;16.27;4.35;;;;;;;;;;6174859;23;20044;-66
2021/11/08 11:05:42;;;;;;;19.65;4.85;;;;;;;;;;6176788;23;20680;-65
2021/11/08 11:08:16;;;;;;;14.38;4.25;;;;;;;;;;6173484;23;20004;-66
2021/11/08 11:10:53;;;;;;;17.20;4.40;;;;;;;;;;6176010;23;20049;-65
2021/11/08 11:13:30;;;;;;;12.00;4.10;;;;;;;;;;6169663;23;20331;-65
2021/11/08 11:16:02;;;;;;;13.13;4.30;;;;;;;;;;6151497;23;20012;-65
2021/11/08 11:18:37;;;;;;;13.27;5.05;;;;;;;;;;6176855;23;20108;-65
2021/11/08 11:21:14;;;;;;;12.68;4.10;;;;;;;;;;6176106;23;20339;-65
2021/11/08 11:23:49;;;;;;;13.25;4.32;;;;;;;;;;6173851;23;20026;-65
2021/11/08 11:26:17;;;;;;;15.35;4.40;;;;;;;;;;6177424;23;20009;-66
2021/11/08 11:28:45;;;;;;;;;;;;;;;;;;6176046;23;20773;-65
2021/11/08 11:31:23;;;;;;;12.65;3.92;;;;;;;;;;6173930;23;20317;-65
2021/11/08 11:33:53;;;;;;;14.95;4.10;;;;;;;;;;6171406;23;20047;-65
2021/11/08 11:36:22;;;;;;;17.10;4.25;;;;;;;;;;6177428;23;20016;-65
2021/11/08 11:39:04;;;;;;;12.30;3.90;;;;;;;;;;6175932;23;20080;-65
2021/11/08 11:41:35;;;;;;;13.10;4.05;;;;;;;;;;6146035;23;20009;-65
2021/11/08 11:44:05;;;;;;;11.50;4.25;;;;;;;;;;6173589;23;20005;-65
2021/11/08 11:46:35;;;;;;;16.00;4.75;;;;;;;;;;6169624;23;20032;-65
2021/11/08 11:49:02;;;;;;;19.17;4.30;;;;;;;;;;6176919;23;20009;-65
2021/11/08 11:51:31;;;;;;;12.57;4.35;;;;;;;;;;6177049;23;20005;-65
2021/11/08 11:53:57;;;;;;;13.40;3.97;;;;;;;;;;6177399;23;20454;-65
2021/11/08 11:56:24;;;;;;;11.18;3.38;;;;;;;;;;6177257;23;20011;-65
2021/11/08 11:58:51;;;;;;;11.63;4.00;;;;;;;;;;6176511;23;20509;-66
2021/11/08 12:01:21;;;;;;;15.18;3.83;;;;;;;;;;6176193;23;20009;-65
2021/11/08 12:03:47;;;;;;;12.43;4.00;;;;;;;;;;6176783;23;20015;-65
2021/11/08 12:06:17;;;;;;;11.95;3.85;;;;;;;;;;6177149;23;20001;-65
2021/11/08 12:08:45;;;;;;;13.80;3.90;;;;;;;;;;6173608;23;20060;-65
2021/11/08 12:11:11;;;;;;;14.10;4.03;;;;;;;;;;6175110;23;20063;-66
2021/11/08 12:13:43;;;;;;;14.63;3.55;;;;;;;;;;6173713;23;20013;-66
2021/11/08 12:16:14;;;;;;;15.05;3.95;;;;;;;;;;6175499;23;20008;-65
2021/11/08 12:18:39;;;;;;;12.93;3.30;;;;;;;;;;6172278;23;20005;-66
2021/11/08 12:21:18;;;;;;;11.57;3.55;;;;;;;;;;6176986;23;20084;-66
2021/11/08 12:23:43;;;;;;;11.25;3.70;;;;;;;;;;6175275;23;20669;-66
2021/11/08 12:26:17;;;;;;;13.00;4.00;;;;;;;;;;6173725;23;20005;-66
2021/11/08 12:28:45;;;;;;;10.63;3.47;;;;;;;;;;6173372;23;20028;-66
2021/11/08 12:31:10;;;;;;;13.57;3.47;;;;;;;;;;6173255;23;20493;-66
2021/11/08 12:33:38;;;;;;;12.57;3.95;;;;;;;;;;6173849;23;20243;-66
2021/11/08 12:36:06;;;;;;;12.77;3.90;;;;;;;;;;6177648;23;20030;-66
2021/11/08 12:38:40;;;;;;;9.27;3.30;;;;;;;;;;6177548;23;20047;-66
2021/11/08 12:41:16;;;;;;;15.98;3.20;;;;;;;;;;6174710;23;20427;-66
2021/11/08 12:43:48;;;;;;;19.98;4.00;;;;;;;;;;6176614;23;20068;-66
2021/11/08 12:46:20;;;;;;;11.32;3.40;;;;;;;;;;6179252;23;20008;-66
2021/11/08 12:48:48;;;;;;;12.25;3.30;;;;;;;;;;6173461;23;20857;-66
2021/11/08 12:51:16;;;;;;;12.20;3.38;;;;;;;;;;6148481;23;20001;-66
2021/11/08 12:53:45;;;;;;;11.98;3.13;;;;;;;;;;6173168;23;20001;-66
2021/11/08 12:56:23;;;;;;;11.35;3.25;;;;;;;;;;6175190;23;20362;-66
2021/11/08 12:58:52;;;;;;;12.50;3.40;;;;;;;;;;6147615;23;20032;-66
2021/11/08 13:01:24;;;;;;;10.93;3.15;;;;;;;;;;6173678;23;20008;-66
2021/11/08 13:03:52;;;;;;;11.13;3.10;;;;;;;;;;6167494;23;20320;-66
2021/11/08 13:06:30;;;;;;;14.93;3.63;;;;;;;;;;6171113;23;20012;-66
2021/11/08 13:09:24;;;;;;;9.38;3.05;;;;;;;;;;6170051;23;20011;-66
2021/11/08 13:11:56;;;;;;;11.23;2.80;;;;;;;;;;6168837;23;20742;-66
2021/11/08 13:14:30;;;;;;;12.52;3.90;;;;;;;;;;6171100;23;20043;-66
2021/11/08 13:17:07;;;;;;;13.13;3.10;;;;;;;;;;6171537;23;20025;-66
2021/11/08 13:19:44;;;;;;;11.93;3.20;;;;;;;;;;6171755;23;20076;-66
2021/11/08 13:22:23;;;;;;;12.38;3.55;;;;;;;;;;6174161;23;20038;-66
2021/11/08 13:25:04;;;;;;;10.20;2.83;;;;;;;;;;6174446;23;20371;-66
2021/11/08 13:27:47;;;;;;;13.02;3.35;;;;;;;;;;6175080;23;20069;-66
2021/11/08 13:30:13;;;;;;;11.98;3.10;;;;;;;;;;6173840;23;20084;-66
2021/11/08 13:32:42;;;;;;;10.82;3.15;;;;;;;;;;6172874;23;20124;-66
2021/11/08 13:35:26;;;;;;;13.20;3.35;;;;;;;;;;6175709;23;20009;-66
2021/11/08 13:38:14;;;;;;;14.27;3.40;;;;;;;;;;6174887;23;20005;-66
2021/11/08 13:41:16;;;;;;;13.70;3.95;;;;;;;;;;6175407;23;20407;-66
2021/11/08 13:43:45;;;;;;;13.85;3.10;;;;;;;;;;6098315;23;20009;-66
2021/11/08 13:46:17;;;;;;;9.60;3.45;;;;;;;;;;6178381;23;20063;-66
2021/11/08 13:48:49;;;;;;;12.75;3.55;;;;;;;;;;6179283;23;20001;-65
2021/11/08 13:51:44;;;;;;;15.07;3.50;;;;;;;;;;6177849;23;20040;-65
2021/11/08 13:54:13;;;;;;;14.98;3.85;;;;;;;;;;6176330;23;20005;-65
2021/11/08 13:56:59;;;;;;;10.57;3.05;;;;;;;;;;6176011;23;20009;-65
2021/11/08 13:59:46;;;;;;;9.43;2.90;;;;;;;;;;6174495;23;20068;-65
2021/11/08 14:02:29;;;;;;;56.38;6.40;;;;;;;;;;6175595;23;20351;-65
2021/11/08 14:04:57;;;;;;;8.98;3.00;;;;;;;;;;6171903;23;20356;-65
2021/11/08 14:07:24;;;;;;;9.65;3.10;;;;;;;;;;6152130;23;20012;-65
2021/11/08 14:09:49;;;;;;;13.02;3.28;;;;;;;;;;6176917;23;20005;-65
2021/11/08 14:12:18;;;;;;;13.18;5.05;;;;;;;;;;6176926;23;20005;-65
2021/11/08 14:14:44;;;;;;;19.45;10.85;;;;;;;;;;6178322;23;20099;-65
2021/11/08 14:17:14;;;;;;;11.05;3.08;;;;;;;;;;6180263;23;20588;-65
2021/11/08 14:19:42;;;;;;;11.57;4.35;;;;;;;;;;6177881;23;20009;-65
2021/11/08 14:22:08;;;;;;;12.98;3.80;;;;;;;;;;6179817;23;20013;-65
2021/11/08 14:24:40;;;;;;;13.32;3.00;;;;;;;;;;6174681;23;20056;-65
2021/11/08 14:27:15;;;;;;;12.00;3.30;;;;;;;;;;6176237;23;20009;-65
2021/11/08 14:29:41;;;;;;;13.18;3.78;;;;;;;;;;6148862;23;20008;-65
2021/11/08 14:32:11;;;;;;;10.80;4.25;;;;;;;;;;6175135;23;20026;-65
2021/11/08 14:34:43;;;;;;;19.70;9.25;;;;;;;;;;6173289;23;20005;-65
2021/11/08 14:37:11;;;;;;;15.55;6.40;;;;;;;;;;6176929;23;20414;-65
2021/11/08 14:39:46;;;;;;;23.33;8.77;;;;;;;;;;6171539;23;20009;-65
2021/11/08 14:42:13;;;;;;;14.68;6.75;;;;;;;;;;6149611;23;20009;-65
2021/11/08 14:44:49;;;;;;;18.00;6.37;;;;;;;;;;6174530;23;20315;-65
2021/11/08 14:47:19;;;;;;;17.13;7.87;;;;;;;;;;6175335;23;20236;-65
2021/11/08 14:49:57;;;;;;;26.67;8.10;;;;;;;;;;6169686;23;20462;-65
2021/11/08 14:52:37;;;;;;;18.70;7.95;;;;;;;;;;6173582;23;20004;-65
2021/11/08 14:55:33;;;;;;;24.02;8.85;;;;;;;;;;6170715;23;20001;-65
2021/11/08 14:58:11;;;;;;;26.08;10.57;;;;;;;;;;6122598;23;20016;-65
2021/11/08 15:00:37;;;;;;;25.45;11.27;;;;;;;;;;6173863;23;20161;-65
2021/11/08 15:03:09;;;;;;;21.75;10.30;;;;;;;;;;6174840;23;20076;-65
2021/11/08 15:05:35;;;;;;;24.83;10.38;;;;;;;;;;6173979;23;20016;-65
2021/11/08 15:08:08;;;;;;;21.42;9.68;;;;;;;;;;6173497;23;20080;-65
2021/11/08 15:10:37;;;;;;;19.45;9.52;;;;;;;;;;6172131;23;20444;-65
2021/11/08 15:13:06;;;;;;;25.70;9.80;;;;;;;;;;6171832;23;20005;-65
2021/11/08 15:15:42;;;;;;;18.77;8.85;;;;;;;;;;6170934;23;20351;-65
2021/11/08 15:18:17;;;;;;;17.67;8.40;;;;;;;;;;6172357;23;20011;-65
2021/11/08 15:20:45;;;;;;;14.88;8.35;;;;;;;;;;6176204;23;20728;-65
2021/11/08 15:23:15;;;;;;;19.88;9.63;;;;;;;;;;6176374;23;20112;-65
2021/11/08 15:25:44;;;;;;;21.02;8.93;;;;;;;;;;6176205;23;20596;-65
2021/11/08 15:28:14;;;;;;;21.58;9.00;;;;;;;;;;6176498;23;20009;-65
2021/11/08 15:30:44;;;;;;;17.25;7.68;;;;;;;;;;6178716;23;20335;-65
2021/11/08 15:33:17;;;;;;;18.45;7.15;;;;;;;;;;6178270;23;20677;-65
2021/11/08 15:35:46;;;;;;;15.73;6.20;;;;;;;;;;6175580;23;20039;-65
2021/11/08 15:38:15;;;;;;;15.48;5.60;;;;;;;;;;6176211;23;20055;-65
2021/11/08 15:40:41;;;;;;;11.90;4.30;;;;;;;;;;6174417;23;20005;-65
2021/11/08 15:43:07;;;;;;;9.97;4.33;;;;;;;;;;6178876;23;20021;-64
2021/11/08 15:45:42;;;;;;;12.82;4.68;;;;;;;;;;6177950;23;20009;-64
2021/11/08 15:48:07;;;;;;;10.65;4.43;;;;;;;;;;6174504;23;20541;-65
2021/11/08 15:50:33;;;;;;;8.45;3.63;;;;;;;;;;6152421;23;20040;-65
2021/11/08 15:52:58;;;;;;;11.88;4.63;;;;;;;;;;6179197;23;20009;-64
2021/11/08 15:55:26;;;;;;;14.40;4.38;;;;;;;;;;6176578;23;20012;-65
2021/11/08 15:57:52;;;;;;;10.70;3.25;;;;;;;;;;6178536;23;20008;-64
2021/11/08 16:00:19;;;;;;;12.87;3.50;;;;;;;;;;6177305;23;20001;-64
2021/11/08 16:02:45;;;;;;;9.25;3.22;;;;;;;;;;6174286;23;20408;-64
2021/11/08 16:05:10;;;;;;;11.00;3.28;;;;;;;;;;6178909;23;20009;-65
2021/11/08 16:07:36;;;;;;;15.00;4.13;;;;;;;;;;6179805;23;20005;-65
2021/11/08 16:10:04;;;;;;;13.93;4.20;;;;;;;;;;6178152;23;20005;-65
2021/11/08 16:12:41;;;;;;;12.95;4.35;;;;;;;;;;6178954;23;20059;-65
2021/11/08 16:15:07;;;;;;;10.93;4.25;;;;;;;;;;6177211;23;20055;-64
2021/11/08 16:17:42;;;;;;;10.15;4.20;;;;;;;;;;6178755;23;20084;-63
2021/11/08 16:20:09;;;;;;;10.90;4.22;;;;;;;;;;6178538;23;20005;-63